createdAt,value
2018-11-12T00:01:22.804Z,7.40
2018-11-12T00:03:51.012Z,7.00
2018-11-12T00:06:19.224Z,8.43
2018-11-12T00:08:47.431Z,7.57
2018-11-12T00:11:15.647Z,7.27
2018-11-12T00:13:43.885Z,8.47
2018-11-12T00:16:12.091Z,8.00
2018-11-12T00:18:40.357Z,8.50
2018-11-12T00:21:08.564Z,8.33
2018-11-12T00:23:36.784Z,8.37
2018-11-12T00:26:05.689Z,8.70
2018-11-12T00:28:33.912Z,9.03
2018-11-12T00:31:02.181Z,8.40
2018-11-12T00:33:30.408Z,9.40
2018-11-12T00:35:58.643Z,8.60
2018-11-12T00:38:26.856Z,9.03
2018-11-12T00:40:55.084Z,8.67
2018-11-12T00:43:23.309Z,9.20
2018-11-12T00:45:51.504Z,9.37
2018-11-12T00:48:19.728Z,9.40
2018-11-12T00:50:47.966Z,9.17
2018-11-12T00:53:16.185Z,8.23
2018-11-12T00:55:44.426Z,8.97
2018-11-12T00:58:12.651Z,8.30
2018-11-12T01:00:40.876Z,9.27
2018-11-12T01:03:09.079Z,9.00
2018-11-12T01:05:37.318Z,10.30
2018-11-12T01:08:05.521Z,8.90
2018-11-12T01:10:33.759Z,9.33
2018-11-12T01:13:01.968Z,7.83
2018-11-12T01:15:30.216Z,9.37
2018-11-12T01:17:58.427Z,9.07
2018-11-12T01:20:26.657Z,8.57
2018-11-12T01:22:54.880Z,8.60
2018-11-12T01:25:23.124Z,9.07
2018-11-12T01:27:51.331Z,9.33
2018-11-12T01:30:19.678Z,9.03
2018-11-12T01:32:48.067Z,9.07
2018-11-12T01:35:17.303Z,9.23
2018-11-12T01:37:45.652Z,9.80
2018-11-12T01:40:14.671Z,10.00
2018-11-12T01:42:43.268Z,9.30
2018-11-12T01:45:13.456Z,9.17
2018-11-12T01:47:42.280Z,10.23
2018-11-12T01:50:11.658Z,10.10
2018-11-12T01:52:39.968Z,11.57
2018-11-12T01:55:09.195Z,9.93
2018-11-12T01:57:37.411Z,10.37
2018-11-12T02:00:11.349Z,10.43
2018-11-12T02:02:39.648Z,9.80
2018-11-12T02:05:08.256Z,10.83
2018-11-12T02:07:36.509Z,10.77
2018-11-12T02:10:05.249Z,11.17
2018-11-12T02:12:33.451Z,10.60
2018-11-12T02:15:01.654Z,10.13
2018-11-12T02:17:29.924Z,10.67
2018-11-12T02:19:58.169Z,10.90
2018-11-12T02:22:26.419Z,9.67
2018-11-12T02:24:54.644Z,11.00
2018-11-12T02:27:22.861Z,9.40
2018-11-12T02:29:51.124Z,10.70
2018-11-12T02:32:19.346Z,11.63
2018-11-12T02:34:47.569Z,11.27
2018-11-12T02:37:15.802Z,10.63
2018-11-12T02:39:44.020Z,10.87
2018-11-12T02:42:12.299Z,10.47
2018-11-12T02:44:40.513Z,10.80
2018-11-12T02:47:08.732Z,11.17
2018-11-12T02:49:36.947Z,11.17
2018-11-12T02:52:05.148Z,11.60
2018-11-12T02:54:33.364Z,11.90
2018-11-12T02:57:01.556Z,10.83
2018-11-12T02:59:29.767Z,11.47
2018-11-12T03:01:57.984Z,11.97
2018-11-12T03:04:26.208Z,11.70
2018-11-12T03:06:54.417Z,11.53
2018-11-12T03:09:22.656Z,10.93
2018-11-12T03:11:50.879Z,11.10
2018-11-12T03:14:19.075Z,11.50
2018-11-12T03:16:47.300Z,12.30
2018-11-12T03:19:15.512Z,11.43
2018-11-12T03:21:43.724Z,11.77
2018-11-12T03:24:11.941Z,11.90
2018-11-12T03:26:40.151Z,10.50
2018-11-12T03:29:08.411Z,11.40
2018-11-12T03:31:36.625Z,12.00
2018-11-12T03:34:04.836Z,11.43
2018-11-12T03:36:33.047Z,12.13
2018-11-12T03:39:01.260Z,11.03
2018-11-12T03:41:29.475Z,11.17
2018-11-12T03:43:57.681Z,11.60
2018-11-12T03:46:25.887Z,11.70
2018-11-12T03:48:54.097Z,10.17
2018-11-12T03:51:22.316Z,11.00
2018-11-12T03:53:50.544Z,9.70
2018-11-12T03:56:18.772Z,10.00
2018-11-12T03:58:47.000Z,10.70
2018-11-12T04:01:15.216Z,11.20
2018-11-12T04:03:43.448Z,10.67
2018-11-12T04:06:11.708Z,9.67
2018-11-12T04:08:39.931Z,10.43
2018-11-12T04:11:08.164Z,10.80
2018-11-12T04:13:36.377Z,10.07
2018-11-12T04:16:04.620Z,10.40
2018-11-12T04:18:32.856Z,10.20
2018-11-12T04:21:01.079Z,10.13
2018-11-12T04:23:29.291Z,10.50
2018-11-12T04:25:57.520Z,9.37
2018-11-12T04:28:25.740Z,10.20
2018-11-12T04:30:53.968Z,10.77
2018-11-12T04:33:22.184Z,8.47
2018-11-12T04:35:50.391Z,9.67
2018-11-12T04:38:18.609Z,9.50
2018-11-12T04:40:46.846Z,8.43
2018-11-12T04:43:15.051Z,8.37
2018-11-12T04:45:43.315Z,8.90
2018-11-12T04:48:11.538Z,9.20
2018-11-12T04:50:39.778Z,9.93
2018-11-12T04:53:07.977Z,8.50
2018-11-12T04:55:36.216Z,8.83
2018-11-12T04:58:04.436Z,8.40
2018-11-12T05:00:32.739Z,8.83
2018-11-12T05:03:00.960Z,8.20
2018-11-12T05:05:29.315Z,7.80
2018-11-12T05:07:57.520Z,7.83
2018-11-12T05:10:26.566Z,8.37
2018-11-12T05:12:55.131Z,8.27
2018-11-12T05:15:24.177Z,9.57
2018-11-12T05:17:52.375Z,7.50
2018-11-12T05:20:22.942Z,7.90
2018-11-12T05:22:51.164Z,8.17
2018-11-12T05:25:19.375Z,8.27
2018-11-12T05:27:47.592Z,7.53
2018-11-12T05:30:17.784Z,7.20
2018-11-12T05:32:46.098Z,7.50
2018-11-12T05:35:15.456Z,6.97
2018-11-12T05:37:43.835Z,7.57
2018-11-12T05:40:13.813Z,7.73
2018-11-12T05:42:42.340Z,7.77
2018-11-12T05:45:10.664Z,7.83
2018-11-12T05:47:39.289Z,7.37
2018-11-12T05:50:12.228Z,7.70
2018-11-12T05:52:41.023Z,6.90
2018-11-12T05:55:10.392Z,7.87
2018-11-12T05:57:39.403Z,8.20
2018-11-12T06:00:08.894Z,7.20
2018-11-12T06:02:37.197Z,7.73
2018-11-12T06:05:06.424Z,7.00
2018-11-12T06:07:34.780Z,7.50
2018-11-12T06:10:03.051Z,7.73
2018-11-12T06:12:31.273Z,7.03
2018-11-12T06:14:59.505Z,7.40
2018-11-12T06:17:27.742Z,8.13
2018-11-12T06:19:56.023Z,7.10
2018-11-12T06:22:24.221Z,8.17
2018-11-12T06:24:52.432Z,7.87
2018-11-12T06:27:20.688Z,7.73
2018-11-12T06:29:48.907Z,8.40
2018-11-12T06:32:17.100Z,8.63
2018-11-12T06:34:45.322Z,9.00
2018-11-12T06:37:13.562Z,8.50
2018-11-12T06:39:41.784Z,9.47
2018-11-12T06:42:10.018Z,7.83
2018-11-12T06:44:38.232Z,9.50
2018-11-12T06:47:06.589Z,9.30
2018-11-12T06:49:34.820Z,8.20
2018-11-12T06:52:03.025Z,9.23
2018-11-12T06:54:31.260Z,8.70
2018-11-12T06:56:59.499Z,8.77
2018-11-12T06:59:27.744Z,9.77
2018-11-12T07:01:55.955Z,9.50
2018-11-12T07:04:24.196Z,10.37
2018-11-12T07:06:52.470Z,9.37
2018-11-12T07:09:20.692Z,10.07
2018-11-12T07:11:48.920Z,9.97
2018-11-12T07:14:18.106Z,10.57
2018-11-12T07:16:46.327Z,10.13
2018-11-12T07:19:17.479Z,9.90
2018-11-12T07:21:45.700Z,9.57
2018-11-12T07:24:13.956Z,10.23
2018-11-12T07:26:42.169Z,9.97
2018-11-12T07:29:10.397Z,9.40
2018-11-12T07:31:38.621Z,10.20
2018-11-12T07:34:06.853Z,10.47
2018-11-12T07:36:35.069Z,9.47
2018-11-12T07:39:03.865Z,9.03
2018-11-12T07:41:32.091Z,9.47
2018-11-12T07:44:00.324Z,9.63
2018-11-12T07:46:28.544Z,9.77
2018-11-12T07:48:56.865Z,9.77
2018-11-12T07:51:25.074Z,8.87
2018-11-12T07:53:53.251Z,10.30
2018-11-12T07:56:36.160Z,10.87
2018-11-12T07:59:04.393Z,10.47
2018-11-12T08:01:32.617Z,10.87
2018-11-12T08:04:00.877Z,10.83
2018-11-12T08:06:29.169Z,10.37
2018-11-12T08:08:57.410Z,10.27
2018-11-12T08:11:25.618Z,11.13
2018-11-12T08:13:53.848Z,9.40
2018-11-12T08:16:22.151Z,11.03
2018-11-12T08:18:51.182Z,10.13
2018-11-12T08:21:19.428Z,10.10
2018-11-12T08:23:47.653Z,9.47
2018-11-12T08:26:15.893Z,9.67
2018-11-12T08:28:44.137Z,9.93
2018-11-12T08:31:12.396Z,11.13
2018-11-12T08:33:40.630Z,10.20
2018-11-12T08:36:08.913Z,10.57
2018-11-12T08:38:37.059Z,10.00
2018-11-12T08:41:05.460Z,10.33
2018-11-12T08:43:33.606Z,10.57
2018-11-12T08:46:01.864Z,12.67
2018-11-12T08:48:30.101Z,11.90
2018-11-12T08:50:58.289Z,11.03
2018-11-12T08:53:26.540Z,10.60
2018-11-12T08:55:54.780Z,9.67
2018-11-12T08:58:23.072Z,10.10
2018-11-12T09:00:51.310Z,10.93
2018-11-12T09:03:19.513Z,12.13
2018-11-12T09:05:47.763Z,11.53
2018-11-12T09:08:16.084Z,10.47
2018-11-12T09:10:44.309Z,12.40
2018-11-12T09:13:12.545Z,12.10
2018-11-12T09:15:40.798Z,12.33
2018-11-12T09:18:08.969Z,13.33
2018-11-12T09:20:37.233Z,11.60
2018-11-12T09:23:05.521Z,12.37
2018-11-12T09:25:34.361Z,11.17
2018-11-12T09:28:02.628Z,10.20
2018-11-12T09:30:31.005Z,10.60
2018-11-12T09:32:59.165Z,11.57
2018-11-12T09:35:29.533Z,11.80
2018-11-12T09:37:58.560Z,12.70
2018-11-12T09:40:32.172Z,13.20
2018-11-12T09:43:00.459Z,12.17
2018-11-12T09:45:28.716Z,12.17
2018-11-12T09:47:56.980Z,13.10
2018-11-12T09:50:26.089Z,10.70
2018-11-12T09:52:55.504Z,13.83
2018-11-12T09:55:24.667Z,12.50
2018-11-12T09:57:55.520Z,13.07
2018-11-12T10:00:23.910Z,14.60
2018-11-12T10:02:52.811Z,12.50
2018-11-12T10:05:21.909Z,15.97
2018-11-12T10:07:53.150Z,14.70
2018-11-12T10:10:57.153Z,13.43
2018-11-12T10:13:27.083Z,14.23
2018-11-12T10:15:55.975Z,15.07
2018-11-12T10:18:21.561Z,13.13
2018-11-12T10:20:49.801Z,13.17
2018-11-12T10:23:18.323Z,12.30
2018-11-12T10:25:46.595Z,14.10
2018-11-12T10:28:15.090Z,13.57
2018-11-12T10:30:43.313Z,14.33
2018-11-12T10:33:11.533Z,14.07
2018-11-12T10:35:39.775Z,14.30
2018-11-12T10:38:08.609Z,13.17
2018-11-12T10:40:36.911Z,14.37
2018-11-12T10:43:05.249Z,12.97
2018-11-12T10:45:33.515Z,12.17
2018-11-12T10:48:01.759Z,13.47
2018-11-12T10:50:29.965Z,14.60
2018-11-12T10:52:58.216Z,12.50
2018-11-12T10:55:26.755Z,13.47
2018-11-12T10:57:54.976Z,13.97
2018-11-12T11:00:30.765Z,13.90
2018-11-12T11:03:05.404Z,12.33
2018-11-12T11:05:33.841Z,14.30
2018-11-12T11:08:02.112Z,13.00
2018-11-12T11:10:30.928Z,13.80
2018-11-12T11:13:00.400Z,12.30
2018-11-12T11:15:29.278Z,13.73
2018-11-12T11:17:57.484Z,12.50
2018-11-12T11:20:25.797Z,12.03
2018-11-12T11:22:54.024Z,11.83
2018-11-12T11:25:22.293Z,13.30
2018-11-12T11:27:50.605Z,12.50
2018-11-12T11:30:18.903Z,11.87
2018-11-12T11:32:47.256Z,11.73
2018-11-12T11:35:16.571Z,10.93
2018-11-12T11:37:44.875Z,11.20
2018-11-12T11:40:26.772Z,10.43
2018-11-12T11:42:55.037Z,11.83
2018-11-12T11:45:23.559Z,12.07
2018-11-12T11:47:52.621Z,10.60
2018-11-12T11:50:22.008Z,11.80
2018-11-12T11:52:50.184Z,10.43
2018-11-12T11:55:19.743Z,10.17
2018-11-12T11:57:48.273Z,10.77
2018-11-12T12:00:19.323Z,10.77
2018-11-12T12:02:48.561Z,9.70
2018-11-12T12:05:17.619Z,9.63
2018-11-12T12:07:45.856Z,9.63
2018-11-12T12:10:14.852Z,10.30
2018-11-12T12:12:43.760Z,8.90
2018-11-12T12:15:13.995Z,8.50
2018-11-12T12:17:42.210Z,9.10
2018-11-12T12:20:12.592Z,10.50
2018-11-12T12:22:40.958Z,8.60
2018-11-12T12:25:10.841Z,9.63
2018-11-12T12:27:39.308Z,9.13
2018-11-12T12:30:11.427Z,8.73
2018-11-12T12:32:39.846Z,9.30
2018-11-12T12:35:08.880Z,8.10
2018-11-12T12:37:37.191Z,8.10
2018-11-12T12:40:07.005Z,7.30
2018-11-12T12:42:35.450Z,7.13
2018-11-12T12:45:03.876Z,7.77
2018-11-12T12:47:32.004Z,6.30
2018-11-12T12:50:00.236Z,5.17
2018-11-12T12:52:28.464Z,6.10
2018-11-12T12:54:56.701Z,5.50
2018-11-12T12:57:25.034Z,5.90
2018-11-12T12:59:53.301Z,6.17
2018-11-12T13:02:21.600Z,5.23
2018-11-12T13:04:53.480Z,5.47
2018-11-12T13:07:18.017Z,5.30
2018-11-12T13:09:46.249Z,5.60
2018-11-12T13:12:14.469Z,6.13
2018-11-12T13:14:43.615Z,6.17
2018-11-12T13:17:11.921Z,6.30
2018-11-12T13:19:40.183Z,6.90
2018-11-12T13:22:08.405Z,5.73
2018-11-12T13:24:36.681Z,5.53
2018-11-12T13:27:04.964Z,5.57
2018-11-12T13:29:33.183Z,7.17
2018-11-12T13:32:01.406Z,5.60
2018-11-12T13:34:29.646Z,6.63
2018-11-12T13:36:57.861Z,6.07
2018-11-12T13:39:26.191Z,5.47
2018-11-12T13:41:54.421Z,5.90
2018-11-12T13:44:22.679Z,5.50
2018-11-12T13:46:51.716Z,5.50
2018-11-12T13:49:19.991Z,6.73
2018-11-12T13:51:48.235Z,5.47
2018-11-12T13:54:16.450Z,6.10
2018-11-12T13:56:44.680Z,5.63
2018-11-12T13:59:12.972Z,5.63
2018-11-12T14:01:41.201Z,6.33
2018-11-12T14:04:09.416Z,6.57
2018-11-12T14:06:37.793Z,5.77
2018-11-12T14:09:08.788Z,5.80
2018-11-12T14:11:37.141Z,6.23
2018-11-12T14:14:06.106Z,6.10
2018-11-12T14:16:34.341Z,6.10
2018-11-12T14:19:02.551Z,6.60
2018-11-12T14:21:31.015Z,6.83
2018-11-12T14:23:59.056Z,5.67
2018-11-12T14:26:27.516Z,6.30
2018-11-12T14:28:55.926Z,7.00
2018-11-12T14:31:24.096Z,6.37
2018-11-12T14:33:52.298Z,5.70
2018-11-12T14:36:20.551Z,6.73
2018-11-12T14:38:48.744Z,6.80
2018-11-12T14:41:17.492Z,6.37
2018-11-12T14:43:45.916Z,5.87
2018-11-12T14:46:14.388Z,5.33
2018-11-12T14:48:42.731Z,5.40
2018-11-12T14:51:11.041Z,4.97
2018-11-12T14:53:39.476Z,4.93
2018-11-12T14:56:08.128Z,5.30
2018-11-12T14:58:36.537Z,4.90
2018-11-12T15:01:04.796Z,5.57
2018-11-12T15:03:33.560Z,5.37
2018-11-12T15:06:02.190Z,4.97
2018-11-12T15:08:30.744Z,4.73
2018-11-12T15:10:59.220Z,4.60
2018-11-12T15:13:27.449Z,5.20
2018-11-12T15:15:56.124Z,4.67
2018-11-12T15:18:24.512Z,5.27
2018-11-12T15:20:53.452Z,5.20
2018-11-12T15:23:22.425Z,5.33
2018-11-12T15:25:50.685Z,4.60
2018-11-12T15:28:18.900Z,5.00
2018-11-12T15:30:47.219Z,4.03
2018-11-12T15:33:15.525Z,4.60
2018-11-12T15:35:43.855Z,4.73
2018-11-12T15:38:12.134Z,4.70
2018-11-12T15:40:40.376Z,5.03
2018-11-12T15:43:08.826Z,5.30
2018-11-12T15:45:36.970Z,5.43
2018-11-12T15:48:05.371Z,4.80
2018-11-12T15:50:35.022Z,4.50
2018-11-12T15:53:03.584Z,4.33
2018-11-12T15:55:31.853Z,4.53
2018-11-12T15:58:00.181Z,4.50
2018-11-12T16:00:28.436Z,4.33
2018-11-12T16:02:56.757Z,5.13
2018-11-12T16:05:25.240Z,5.17
2018-11-12T16:07:53.485Z,5.17
2018-11-12T16:10:22.081Z,4.77
2018-11-12T16:12:50.312Z,5.40
2018-11-12T16:15:19.715Z,4.67
2018-11-12T16:17:47.965Z,4.40
2018-11-12T16:20:25.315Z,4.77
2018-11-12T16:22:53.836Z,4.47
2018-11-12T16:25:22.916Z,4.93
2018-11-12T16:27:51.120Z,4.07
2018-11-12T16:30:19.355Z,3.33
2018-11-12T16:32:47.834Z,4.80
2018-11-12T16:35:17.705Z,3.63
2018-11-12T16:37:46.571Z,4.80
2018-11-12T16:40:14.908Z,4.67
2018-11-12T16:42:44.035Z,4.40
2018-11-12T16:45:12.960Z,3.93
2018-11-12T16:47:41.167Z,4.33
2018-11-12T16:50:10.263Z,4.20
2018-11-12T16:52:44.961Z,4.97
2018-11-12T16:55:15.303Z,4.80
2018-11-12T16:57:43.551Z,5.27
2018-11-12T17:00:13.117Z,5.17
2018-11-12T17:02:41.838Z,4.83
2018-11-12T17:05:11.921Z,5.70
2018-11-12T17:07:40.215Z,5.00
2018-11-12T17:10:11.025Z,5.23
2018-11-12T17:12:40.053Z,4.93
2018-11-12T17:15:08.573Z,5.17
2018-11-12T17:17:36.912Z,5.37
2018-11-12T17:20:05.412Z,4.80
2018-11-12T17:22:33.645Z,4.80
2018-11-12T17:25:01.891Z,5.70
2018-11-12T17:27:30.151Z,6.40
2018-11-12T17:29:58.388Z,5.80
2018-11-12T17:32:27.515Z,5.43
2018-11-12T17:34:55.759Z,5.53
2018-11-12T17:37:24.002Z,5.30
2018-11-12T17:39:52.243Z,6.50
2018-11-12T17:42:20.620Z,7.40
2018-11-12T17:44:48.841Z,7.77
2018-11-12T17:47:17.060Z,6.60
2018-11-12T17:49:45.289Z,5.33
2018-11-12T17:52:13.610Z,7.37
2018-11-12T17:54:41.839Z,7.00
2018-11-12T17:57:10.075Z,8.63
2018-11-12T17:59:38.372Z,7.90
2018-11-12T18:02:06.626Z,8.60
2018-11-12T18:04:34.841Z,7.50
2018-11-12T18:07:03.115Z,8.17
2018-11-12T18:09:31.326Z,8.20
2018-11-12T18:11:59.553Z,8.00
2018-11-12T18:14:27.788Z,9.70
2018-11-12T18:16:56.026Z,9.13
2018-11-12T18:19:24.234Z,8.50
2018-11-12T18:21:52.653Z,9.97
2018-11-12T18:24:20.897Z,10.63
2018-11-12T18:26:49.122Z,10.20
2018-11-12T18:29:17.363Z,11.63
2018-11-12T18:31:45.894Z,11.73
2018-11-12T18:34:14.213Z,10.00
2018-11-12T18:36:42.454Z,11.63
2018-11-12T18:39:10.834Z,10.20
2018-11-12T18:41:39.065Z,9.40
2018-11-12T18:44:07.586Z,10.10
2018-11-12T18:46:35.839Z,8.80
2018-11-12T18:49:04.281Z,9.60
2018-11-12T18:51:32.512Z,9.70
2018-11-12T18:54:00.758Z,9.70
2018-11-12T18:56:28.979Z,9.97
2018-11-12T18:58:57.234Z,9.30
2018-11-12T19:01:25.536Z,9.93
2018-11-12T19:03:53.810Z,9.07
2018-11-12T19:06:22.042Z,9.70
2018-11-12T19:08:50.301Z,9.10
2018-11-12T19:11:18.521Z,8.67
2018-11-12T19:13:46.766Z,8.73
2018-11-12T19:16:15.537Z,9.40
2018-11-12T19:18:43.789Z,9.93
2018-11-12T19:21:12.092Z,9.17
2018-11-12T19:23:40.260Z,10.20
2018-11-12T19:26:08.508Z,8.90
2018-11-12T19:28:36.777Z,8.90
2018-11-12T19:31:05.597Z,9.33
2018-11-12T19:33:33.814Z,8.40
2018-11-12T19:36:02.094Z,9.00
2018-11-12T19:38:30.344Z,8.80
2018-11-12T19:40:58.645Z,8.63
2018-11-12T19:43:26.835Z,8.03
2018-11-12T19:45:55.120Z,8.03
2018-11-12T19:48:23.372Z,8.90
2018-11-12T19:50:51.619Z,9.60
2018-11-12T19:53:19.890Z,7.70
2018-11-12T19:55:48.137Z,7.17
2018-11-12T19:58:16.408Z,8.90
2018-11-12T20:00:44.661Z,8.00
2018-11-12T20:03:13.190Z,8.73
2018-11-12T20:05:41.418Z,9.23
2018-11-12T20:08:09.671Z,8.20
2018-11-12T20:10:37.927Z,9.50
2018-11-12T20:13:06.438Z,9.47
2018-11-12T20:15:35.576Z,9.67
2018-11-12T20:18:03.765Z,9.53
2018-11-12T20:20:33.093Z,11.63
2018-11-12T20:23:01.469Z,9.50
2018-11-12T20:25:29.733Z,11.00
2018-11-12T20:27:58.568Z,10.33
2018-11-12T20:30:29.549Z,12.07
2018-11-12T20:32:58.025Z,10.43
2018-11-12T20:35:26.601Z,10.90
2018-11-12T20:37:54.898Z,11.63
2018-11-12T20:40:23.124Z,9.63
2018-11-12T20:42:51.454Z,10.80
2018-11-12T20:45:20.716Z,10.10
2018-11-12T20:47:50.153Z,13.90
2018-11-12T20:50:18.630Z,12.13
2018-11-12T20:52:46.868Z,12.20
2018-11-12T20:55:16.073Z,13.30
2018-11-12T20:57:44.537Z,11.23
2018-11-12T21:00:15.643Z,11.63
2018-11-12T21:02:45.138Z,11.93
2018-11-12T21:05:13.974Z,11.70
2018-11-12T21:07:42.268Z,12.00
2018-11-12T21:10:12.629Z,11.87
2018-11-12T21:12:40.876Z,12.50
2018-11-12T21:15:10.602Z,11.67
2018-11-12T21:17:38.883Z,11.30
2018-11-12T21:20:09.926Z,12.30
2018-11-12T21:22:38.214Z,10.97
2018-11-12T21:25:08.004Z,11.70
2018-11-12T21:27:36.363Z,10.07
2018-11-12T21:30:04.948Z,12.23
2018-11-12T21:32:33.234Z,10.40
2018-11-12T21:35:01.529Z,11.90
2018-11-12T21:37:29.794Z,11.43
2018-11-12T21:39:58.056Z,12.53
2018-11-12T21:42:26.320Z,11.13
2018-11-12T21:44:54.549Z,12.00
2018-11-12T21:47:22.825Z,11.27
2018-11-12T21:49:51.148Z,12.07
2018-11-12T21:52:19.427Z,9.93
2018-11-12T21:54:47.704Z,11.37
2018-11-12T21:57:15.932Z,11.53
2018-11-12T21:59:44.222Z,11.00
2018-11-12T22:02:12.410Z,12.27
2018-11-12T22:04:40.667Z,13.00
2018-11-12T22:07:08.899Z,12.00
2018-11-12T22:09:37.152Z,11.50
2018-11-12T22:12:05.807Z,12.43
2018-11-12T22:14:34.044Z,12.80
2018-11-12T22:17:02.327Z,12.40
2018-11-12T22:19:30.675Z,12.60
2018-11-12T22:21:58.823Z,10.70
2018-11-12T22:24:27.093Z,12.47
2018-11-12T22:26:55.375Z,12.37
2018-11-12T22:29:23.615Z,11.23
2018-11-12T22:31:51.856Z,12.20
2018-11-12T22:34:20.519Z,10.60
2018-11-12T22:36:48.803Z,11.90
2018-11-12T22:39:17.029Z,11.93
2018-11-12T22:41:45.273Z,13.10
2018-11-12T22:44:13.521Z,10.83
2018-11-12T22:46:41.821Z,11.90
2018-11-12T22:49:10.061Z,12.53
2018-11-12T22:51:38.289Z,11.57
2018-11-12T22:54:06.651Z,11.60
2018-11-12T22:56:34.799Z,11.13
2018-11-12T22:59:03.041Z,12.00
2018-11-12T23:01:31.277Z,12.27
2018-11-12T23:03:59.532Z,10.70
2018-11-12T23:06:27.804Z,11.67
2018-11-12T23:08:56.042Z,11.00
2018-11-12T23:11:24.287Z,11.73
2018-11-12T23:13:52.571Z,11.87
2018-11-12T23:16:20.849Z,11.87
2018-11-12T23:18:49.150Z,10.93
2018-11-12T23:21:17.424Z,11.77
2018-11-12T23:23:45.688Z,12.27
2018-11-12T23:26:13.921Z,10.00
2018-11-12T23:28:42.167Z,11.73
2018-11-12T23:31:10.420Z,11.77
2018-11-12T23:33:38.671Z,11.47
2018-11-12T23:36:06.942Z,10.60
2018-11-12T23:38:35.154Z,10.70
2018-11-12T23:41:03.389Z,10.53
2018-11-12T23:43:31.638Z,11.70
2018-11-12T23:45:59.881Z,11.40
2018-11-12T23:48:28.091Z,11.57
2018-11-12T23:50:56.374Z,10.90
2018-11-12T23:53:24.644Z,10.13
2018-11-12T23:55:52.872Z,11.60
2018-11-12T23:58:21.325Z,10.30
